Time;durP1;ratioP1;P1;durP2;ratioP2;P2;SDS_P1;SDS_P2;PMS_P1;PMS_P2;Temp;Humidity;BMP_temperature;BMP_pressure;BME280_temperature;BME280_humidity;BME280_pressure;Samples;Min_cycle;Max_cycle;Signal;HPM_P1;HPM_P2
2022/09/08 00:00:59;;;;;;;0.00;0.00;;;17.80;99.90;;;;;;5066136;22;20254;-75
2022/09/08 00:03:29;;;;;;;0.00;0.00;;;17.80;99.90;;;;;;5028056;28;20203;-75
2022/09/08 00:06:01;;;;;;;0.00;0.00;;;17.80;99.90;;;;;;5048065;28;20261;-74
2022/09/08 00:08:30;;;;;;;0.00;0.00;;;17.80;99.90;;;;;;5034873;28;20256;-74
2022/09/08 00:11:02;;;;;;;0.00;0.00;;;17.90;99.90;;;;;;5071760;28;20683;-74
2022/09/08 00:13:33;;;;;;;0.00;0.00;;;17.80;99.90;;;;;;5064835;28;20190;-74
2022/09/08 00:16:02;;;;;;;0.00;0.00;;;17.80;99.90;;;;;;5068113;28;20205;-73
2022/09/08 00:18:36;;;;;;;0.00;0.00;;;17.80;99.90;;;;;;5057696;28;20189;-74
2022/09/08 00:21:05;;;;;;;0.00;0.00;;;17.90;99.90;;;;;;5047776;28;20228;-74
2022/09/08 00:23:32;;;;;;;0.00;0.00;;;17.90;99.90;;;;;;5044005;28;20202;-74
2022/09/08 00:26:00;;;;;;;0.00;0.00;;;17.80;99.90;;;;;;5046940;28;20305;-75
2022/09/08 00:28:28;;;;;;;0.00;0.00;;;17.80;99.90;;;;;;5071209;28;20229;-74
2022/09/08 00:30:59;;;;;;;0.00;0.00;;;17.90;99.90;;;;;;5052625;28;20608;-75
2022/09/08 00:33:29;;;;;;;0.00;0.00;;;18.00;99.90;;;;;;5053635;28;20590;-74
2022/09/08 00:35:58;;;;;;;0.10;0.10;;;18.00;99.90;;;;;;5073907;28;20194;-74
2022/09/08 00:38:26;;;;;;;0.00;0.00;;;17.90;99.90;;;;;;5074920;28;20201;-76
2022/09/08 00:40:54;;;;;;;0.00;0.00;;;17.90;99.90;;;;;;5063565;28;20644;-74
2022/09/08 00:43:37;;;;;;;0.00;0.00;;;18.00;99.90;;;;;;5053714;28;20206;-74
2022/09/08 00:46:21;;;;;;;0.00;0.00;;;18.00;99.90;;;;;;5035056;28;20206;-74
2022/09/08 00:48:53;;;;;;;0.00;0.00;;;17.80;99.90;;;;;;5044850;28;20367;-73
2022/09/08 00:51:23;;;;;;;0.00;0.00;;;17.80;99.90;;;;;;5034285;28;20250;-73
2022/09/08 00:53:51;;;;;;;0.00;0.00;;;17.70;99.90;;;;;;5049514;28;20249;-74
2022/09/08 00:56:20;;;;;;;0.00;0.00;;;17.70;99.90;;;;;;5053455;28;20206;-73
2022/09/08 00:58:48;;;;;;;0.00;0.00;;;17.70;99.90;;;;;;5051956;28;20207;-73
2022/09/08 01:01:17;;;;;;;0.10;0.10;;;17.70;99.90;;;;;;5044164;28;20203;-73
2022/09/08 01:03:45;;;;;;;0.10;0.10;;;17.70;99.90;;;;;;5041441;28;20258;-74
2022/09/08 01:12:43;;;;;;;0.00;0.00;;;17.70;99.90;;;;;;5032991;28;20269;-74
2022/09/08 01:14:56;;;;;;;0.00;0.00;;;17.80;99.90;;;;;;5052868;28;20213;-73
2022/09/08 01:17:28;;;;;;;0.00;0.00;;;17.50;99.90;;;;;;5043210;28;20224;-74
2022/09/08 01:19:57;;;;;;;0.00;0.00;;;17.40;99.90;;;;;;5039357;28;20239;-74
2022/09/08 01:22:36;;;;;;;0.00;0.00;;;17.50;99.90;;;;;;5038769;28;20214;-74
2022/09/08 01:25:18;;;;;;;0.00;0.00;;;17.60;99.90;;;;;;5043756;28;20206;-74
2022/09/08 01:27:51;;;;;;;0.00;0.00;;;17.70;99.90;;;;;;5045283;28;20207;-75
2022/09/08 01:30:19;;;;;;;0.00;0.00;;;17.80;99.90;;;;;;5032137;28;20288;-74
2022/09/08 01:32:47;;;;;;;0.00;0.00;;;17.90;99.90;;;;;;5035539;28;20253;-75
2022/09/08 01:35:29;;;;;;;0.00;0.00;;;18.00;99.90;;;;;;5052385;28;20198;-74
2022/09/08 01:37:57;;;;;;;0.00;0.00;;;17.90;99.90;;;;;;5059788;28;20201;-73
2022/09/08 01:40:25;;;;;;;0.00;0.00;;;18.00;99.90;;;;;;5074409;28;20275;-73
2022/09/08 01:42:54;;;;;;;0.00;0.00;;;18.00;99.90;;;;;;5046961;28;20252;-73
2022/09/08 01:45:23;;;;;;;0.10;0.10;;;18.10;99.90;;;;;;5038077;28;20207;-75
2022/09/08 01:47:50;;;;;;;0.00;0.00;;;18.10;99.90;;;;;;5045767;28;20207;-74
2022/09/08 01:50:18;;;;;;;0.00;0.00;;;18.20;99.90;;;;;;5017279;28;20766;-75
2022/09/08 01:52:47;;;;;;;0.00;0.00;;;18.20;99.90;;;;;;5032824;28;20207;-75
2022/09/08 01:55:15;;;;;;;0.00;0.00;;;18.00;99.90;;;;;;5067167;28;20199;-74
2022/09/08 01:57:43;;;;;;;0.00;0.00;;;17.90;99.90;;;;;;5047537;28;20296;-73
2022/09/08 02:00:13;;;;;;;0.00;0.00;;;17.90;99.90;;;;;;5038915;28;20222;-74
2022/09/08 02:02:41;;;;;;;0.00;0.00;;;17.80;99.90;;;;;;5038731;28;20195;-74
2022/09/08 02:05:09;;;;;;;0.10;0.10;;;17.80;99.90;;;;;;5059551;28;20203;-73
2022/09/08 02:07:37;;;;;;;0.00;0.00;;;17.70;99.90;;;;;;5046065;28;20249;-73
2022/09/08 02:10:07;;;;;;;0.00;0.00;;;17.70;99.90;;;;;;5032262;28;20214;-74
2022/09/08 02:12:35;;;;;;;0.00;0.00;;;17.80;99.90;;;;;;5033730;28;20199;-73
2022/09/08 02:15:03;;;;;;;0.00;0.00;;;17.80;99.90;;;;;;5045449;28;20557;-75
2022/09/08 02:17:32;;;;;;;0.00;0.00;;;17.80;99.90;;;;;;5048583;28;20251;-75
2022/09/08 02:20:00;;;;;;;0.00;0.00;;;17.70;99.90;;;;;;5071746;28;20201;-74
2022/09/08 02:22:28;;;;;;;0.00;0.00;;;17.70;99.90;;;;;;5058430;28;20205;-73
2022/09/08 02:24:56;;;;;;;0.00;0.00;;;17.70;99.90;;;;;;5047603;28;20652;-74
2022/09/08 02:27:23;;;;;;;0.00;0.00;;;17.60;99.90;;;;;;5037511;28;20195;-74
2022/09/08 02:29:51;;;;;;;0.00;0.00;;;17.70;99.90;;;;;;5031485;28;20317;-74
2022/09/08 02:32:19;;;;;;;0.00;0.00;;;17.60;99.90;;;;;;5031752;28;20222;-73
2022/09/08 02:34:48;;;;;;;0.00;0.00;;;17.70;99.90;;;;;;5034023;28;20253;-73
2022/09/08 02:37:16;;;;;;;0.00;0.00;;;17.70;99.90;;;;;;5046604;28;20220;-73
2022/09/08 02:39:44;;;;;;;0.00;0.00;;;17.80;99.90;;;;;;5051103;28;20641;-73
2022/09/08 02:42:12;;;;;;;0.00;0.00;;;18.00;99.90;;;;;;5050993;28;20252;-74
2022/09/08 02:44:40;;;;;;;0.00;0.00;;;18.10;99.90;;;;;;5068455;28;20255;-73
2022/09/08 02:47:08;;;;;;;0.00;0.00;;;18.10;99.90;;;;;;5049065;28;20536;-74
2022/09/08 02:49:36;;;;;;;0.10;0.10;;;18.00;99.90;;;;;;5052213;28;20249;-75
2022/09/08 02:52:05;;;;;;;0.00;0.00;;;18.10;99.90;;;;;;5040018;28;20221;-74
2022/09/08 02:54:33;;;;;;;0.00;0.00;;;17.90;99.90;;;;;;5038506;28;20229;-74
2022/09/08 02:57:00;;;;;;;0.00;0.00;;;17.80;99.90;;;;;;5062313;28;20194;-73
2022/09/08 02:59:28;;;;;;;0.00;0.00;;;17.90;99.90;;;;;;5055014;28;20275;-71
2022/09/08 03:01:58;;;;;;;0.00;0.00;;;18.00;99.90;;;;;;5052760;28;20190;-72
2022/09/08 03:04:26;;;;;;;0.00;0.00;;;18.00;99.90;;;;;;5052576;28;20198;-72
2022/09/08 03:06:54;;;;;;;0.00;0.00;;;18.00;99.90;;;;;;5061938;28;20701;-72
2022/09/08 03:09:23;;;;;;;0.00;0.00;;;17.80;99.90;;;;;;5034741;28;20222;-72
2022/09/08 03:11:51;;;;;;;0.00;0.00;;;17.70;99.90;;;;;;5035753;28;20281;-72
2022/09/08 03:14:19;;;;;;;0.00;0.00;;;17.60;99.90;;;;;;5060249;28;20198;-72
2022/09/08 03:16:47;;;;;;;0.00;0.00;;;17.50;99.90;;;;;;5052805;28;20198;-75
2022/09/08 03:19:14;;;;;;;0.00;0.00;;;17.60;99.90;;;;;;5033348;28;20245;-72
2022/09/08 03:21:42;;;;;;;0.00;0.00;;;17.50;99.90;;;;;;5042128;28;20728;-71
2022/09/08 03:24:10;;;;;;;0.00;0.00;;;17.50;99.90;;;;;;5062786;28;20247;-71
2022/09/08 03:26:39;;;;;;;0.00;0.00;;;17.50;99.90;;;;;;5054552;28;20202;-71
2022/09/08 03:29:07;;;;;;;0.00;0.00;;;17.50;99.90;;;;;;5045916;28;20199;-71
2022/09/08 03:31:35;;;;;;;0.00;0.00;;;17.50;99.90;;;;;;5043433;28;20218;-71
2022/09/08 03:34:03;;;;;;;0.00;0.00;;;17.50;99.90;;;;;;5031392;28;20232;-72
2022/09/08 03:36:31;;;;;;;0.00;0.00;;;17.50;99.90;;;;;;5034788;28;20573;-72
2022/09/08 03:38:59;;;;;;;0.00;0.00;;;17.60;99.90;;;;;;5035207;28;20203;-71
2022/09/08 03:41:27;;;;;;;0.00;0.00;;;17.60;99.90;;;;;;5032275;28;20195;-71
2022/09/08 03:43:56;;;;;;;0.00;0.00;;;17.60;99.90;;;;;;5045172;28;20234;-71
2022/09/08 03:46:24;;;;;;;0.00;0.00;;;17.70;99.90;;;;;;5054758;28;20191;-73
2022/09/08 03:48:52;;;;;;;0.00;0.00;;;17.70;99.90;;;;;;5045426;28;20206;-73
2022/09/08 03:51:24;;;;;;;0.00;0.00;;;17.70;99.90;;;;;;5038413;28;20219;-71
2022/09/08 03:53:53;;;;;;;0.00;0.00;;;17.80;99.90;;;;;;5039470;28;20207;-73
2022/09/08 03:56:21;;;;;;;0.00;0.00;;;17.90;99.90;;;;;;5040334;28;20607;-73
2022/09/08 03:58:49;;;;;;;0.00;0.00;;;18.00;99.90;;;;;;5049885;28;20264;-72
2022/09/08 04:01:18;;;;;;;0.00;0.00;;;18.20;99.90;;;;;;5049364;28;20237;-72
2022/09/08 04:03:46;;;;;;;0.00;0.00;;;18.20;99.90;;;;;;5044456;28;20677;-73
2022/09/08 04:06:16;;;;;;;0.00;0.00;;;18.30;99.90;;;;;;5038823;28;20624;-74
2022/09/08 04:08:43;;;;;;;0.00;0.00;;;18.40;99.90;;;;;;5048789;28;20203;-72
2022/09/08 04:11:11;;;;;;;0.00;0.00;;;18.40;99.90;;;;;;5034121;28;20310;-72
2022/09/08 04:13:39;;;;;;;0.00;0.00;;;18.50;99.90;;;;;;5045279;28;20926;-72
2022/09/08 04:16:07;;;;;;;0.00;0.00;;;18.50;99.90;;;;;;5041271;28;20203;-72
2022/09/08 04:18:37;;;;;;;0.00;0.00;;;18.40;99.90;;;;;;5051128;28;20209;-73
2022/09/08 04:21:06;;;;;;;0.00;0.00;;;18.40;99.90;;;;;;5049916;28;20218;-72
2022/09/08 04:23:34;;;;;;;0.00;0.00;;;18.20;99.90;;;;;;5041812;28;20264;-72
2022/09/08 04:26:05;;;;;;;0.00;0.00;;;18.10;99.90;;;;;;5049071;28;20194;-73
2022/09/08 04:28:33;;;;;;;0.00;0.00;;;18.00;99.90;;;;;;5068042;28;20199;-72
2022/09/08 04:31:03;;;;;;;0.00;0.00;;;18.10;99.90;;;;;;5048253;28;20254;-73
2022/09/08 04:33:32;;;;;;;0.00;0.00;;;18.00;99.90;;;;;;5071332;28;20375;-73
2022/09/08 04:36:06;;;;;;;0.00;0.00;;;18.00;99.90;;;;;;5054369;28;20198;-73
2022/09/08 04:38:52;;;;;;;0.00;0.00;;;18.00;99.90;;;;;;5033540;28;20223;-72
2022/09/08 04:41:20;;;;;;;0.10;0.10;;;18.00;99.90;;;;;;5035053;28;20202;-72
2022/09/08 04:43:48;;;;;;;0.00;0.00;;;18.10;99.90;;;;;;5050453;28;20210;-71
2022/09/08 04:46:18;;;;;;;0.00;0.00;;;18.20;99.90;;;;;;5052496;28;20252;-71
2022/09/08 04:48:46;;;;;;;0.00;0.00;;;18.30;99.90;;;;;;5053673;28;20204;-71
2022/09/08 04:51:18;;;;;;;0.00;0.00;;;18.40;99.90;;;;;;5057307;28;20222;-71
2022/09/08 04:53:46;;;;;;;0.00;0.00;;;18.40;99.90;;;;;;5049336;28;20231;-71
2022/09/08 04:56:16;;;;;;;0.00;0.00;;;18.40;99.90;;;;;;5065394;28;20213;-71
2022/09/08 04:58:45;;;;;;;0.00;0.00;;;18.50;99.90;;;;;;5060710;28;20201;-71
2022/09/08 05:01:14;;;;;;;0.00;0.00;;;18.40;99.90;;;;;;5069165;28;20265;-74
2022/09/08 05:03:43;;;;;;;0.00;0.00;;;18.40;99.90;;;;;;5040711;28;20656;-71
2022/09/08 05:06:13;;;;;;;0.00;0.00;;;18.20;99.90;;;;;;5063809;28;20664;-72
2022/09/08 05:08:43;;;;;;;0.00;0.00;;;18.10;99.90;;;;;;5060677;28;20739;-71
2022/09/08 05:11:12;;;;;;;0.10;0.10;;;18.10;99.90;;;;;;5051497;28;20221;-71
2022/09/08 05:13:40;;;;;;;0.00;0.00;;;18.10;99.90;;;;;;5046167;28;20214;-71
2022/09/08 05:16:10;;;;;;;0.00;0.00;;;18.00;99.90;;;;;;5061021;28;20199;-72
2022/09/08 05:18:39;;;;;;;0.00;0.00;;;18.10;99.90;;;;;;5045927;28;20312;-71
2022/09/08 05:21:08;;;;;;;0.00;0.00;;;18.00;99.90;;;;;;5048615;28;20221;-71
2022/09/08 05:23:36;;;;;;;0.00;0.00;;;17.80;99.90;;;;;;5040395;28;20251;-71
2022/09/08 05:26:07;;;;;;;0.00;0.00;;;17.70;99.90;;;;;;5052962;28;20739;-72
2022/09/08 05:28:38;;;;;;;0.00;0.00;;;17.80;99.90;;;;;;5060559;28;20260;-72
2022/09/08 05:31:10;;;;;;;0.00;0.00;;;17.70;99.90;;;;;;5065151;28;20238;-72
2022/09/08 05:33:38;;;;;;;0.00;0.00;;;17.70;99.90;;;;;;5059157;28;20271;-70
2022/09/08 05:36:09;;;;;;;0.00;0.00;;;17.70;99.90;;;;;;5068372;28;20201;-71
2022/09/08 05:38:37;;;;;;;0.00;0.00;;;17.70;99.90;;;;;;5056491;28;20248;-70
2022/09/08 05:41:09;;;;;;;0.00;0.00;;;17.80;99.90;;;;;;5062540;28;20244;-71
2022/09/08 05:43:37;;;;;;;0.00;0.00;;;17.80;99.90;;;;;;5070159;28;20213;-71
2022/09/08 05:46:05;;;;;;;0.00;0.00;;;17.80;99.90;;;;;;5053400;28;20202;-69
2022/09/08 05:48:34;;;;;;;0.00;0.00;;;17.90;99.90;;;;;;5052611;28;20198;-70
2022/09/08 05:51:02;;;;;;;0.00;0.00;;;18.00;99.90;;;;;;5051033;28;20733;-69
2022/09/08 05:53:30;;;;;;;0.00;0.00;;;18.00;99.90;;;;;;5051650;28;20218;-69
2022/09/08 05:55:59;;;;;;;0.00;0.00;;;18.00;99.90;;;;;;5051946;28;20194;-71
2022/09/08 05:58:30;;;;;;;0.00;0.00;;;18.10;99.90;;;;;;5067278;28;20202;-70
2022/09/08 06:01:01;;;;;;;0.00;0.00;;;18.10;99.90;;;;;;5087152;22;20673;-73
2022/09/08 06:03:29;;;;;;;0.00;0.00;;;18.10;99.90;;;;;;5080323;28;20231;-73
2022/09/08 06:06:04;;;;;;;0.00;0.00;;;18.10;99.90;;;;;;5080477;28;20201;-73
2022/09/08 06:08:32;;;;;;;0.00;0.00;;;18.20;99.90;;;;;;5084592;28;20192;-70
2022/09/08 06:11:00;;;;;;;0.00;0.00;;;18.30;99.90;;;;;;5067716;28;20266;-70
2022/09/08 06:13:31;;;;;;;0.00;0.00;;;18.50;99.90;;;;;;5050867;28;20252;-71
2022/09/08 06:16:02;;;;;;;0.00;0.00;;;18.50;99.90;;;;;;5048115;28;20198;-71
2022/09/08 06:18:33;;;;;;;0.00;0.00;;;18.50;99.90;;;;;;5050820;28;20218;-71
2022/09/08 06:21:05;;;;;;;0.00;0.00;;;18.50;99.90;;;;;;5050967;28;20210;-71
2022/09/08 06:23:33;;;;;;;0.00;0.00;;;18.50;99.90;;;;;;5049659;28;20199;-71
2022/09/08 06:26:26;;;;;;;0.00;0.00;;;18.40;99.90;;;;;;5051153;28;20553;-73
2022/09/08 06:29:01;;;;;;;0.00;0.00;;;18.40;99.90;;;;;;5054063;28;20271;-71
2022/09/08 06:31:32;;;;;;;0.00;0.00;;;18.40;99.90;;;;;;5070202;28;20222;-71
2022/09/08 06:34:04;;;;;;;0.00;0.00;;;18.40;99.90;;;;;;5062704;28;20223;-70
2022/09/08 06:36:42;;;;;;;0.00;0.00;;;18.40;99.90;;;;;;5061487;28;20602;-70
2022/09/08 06:39:16;;;;;;;0.00;0.00;;;18.50;99.90;;;;;;5050457;28;20224;-71
2022/09/08 06:41:48;;;;;;;0.00;0.00;;;18.50;99.90;;;;;;5053938;28;20202;-71
2022/09/08 06:44:22;;;;;;;0.00;0.00;;;18.40;99.90;;;;;;5051482;28;20738;-71
2022/09/08 06:46:50;;;;;;;0.00;0.00;;;18.40;99.90;;;;;;5050798;28;20212;-70
2022/09/08 06:49:18;;;;;;;0.00;0.00;;;18.40;99.90;;;;;;5052353;28;20661;-71
2022/09/08 06:51:55;;;;;;;0.00;0.00;;;18.40;99.90;;;;;;5051440;28;20255;-73
2022/09/08 06:54:38;;;;;;;0.00;0.00;;;18.30;99.90;;;;;;5050994;28;20221;-71
2022/09/08 06:57:19;;;;;;;0.00;0.00;;;18.30;99.90;;;;;;5051306;28;20194;-72
2022/09/08 07:00:08;;;;;;;0.00;0.00;;;18.30;99.90;;;;;;5066737;28;20606;-71
2022/09/08 07:03:00;;;;;;;0.00;0.00;;;18.20;99.90;;;;;;5069536;28;20658;-72
2022/09/08 07:05:50;;;;;;;0.00;0.00;;;18.10;99.90;;;;;;5064632;28;20252;-72
2022/09/08 07:08:55;;;;;;;0.00;0.00;;;18.00;99.90;;;;;;5051527;28;20248;-72
2022/09/08 07:11:38;;;;;;;0.00;0.00;;;18.00;99.90;;;;;;5050927;28;20222;-72
2022/09/08 07:14:19;;;;;;;0.00;0.00;;;17.90;99.90;;;;;;5049458;28;20253;-71
2022/09/08 07:16:52;;;;;;;0.00;0.00;;;17.90;99.90;;;;;;5050965;28;20218;-71
2022/09/08 07:19:26;;;;;;;0.00;0.00;;;17.90;99.90;;;;;;5050021;28;20198;-71
2022/09/08 07:22:18;;;;;;;0.00;0.00;;;17.80;99.90;;;;;;5050875;28;20217;-72
2022/09/08 07:24:48;;;;;;;0.00;0.00;;;17.80;99.90;;;;;;5053408;28;20221;-71
2022/09/08 07:27:18;;;;;;;0.00;0.00;;;17.70;99.90;;;;;;5041859;28;20199;-72
2022/09/08 07:29:48;;;;;;;0.00;0.00;;;17.70;99.90;;;;;;5050698;28;20915;-71
2022/09/08 07:32:22;;;;;;;0.00;0.00;;;17.70;99.90;;;;;;5043609;28;20696;-71
2022/09/08 07:34:54;;;;;;;0.10;0.10;;;17.60;99.90;;;;;;5038533;28;20230;-71
2022/09/08 07:37:25;;;;;;;0.00;0.00;;;17.60;99.90;;;;;;5054435;28;20202;-72
2022/09/08 07:40:02;;;;;;;0.00;0.00;;;17.60;99.90;;;;;;5053436;28;20229;-72
2022/09/08 07:42:33;;;;;;;0.00;0.00;;;17.60;99.90;;;;;;5053595;28;20205;-71
2022/09/08 07:45:04;;;;;;;0.00;0.00;;;17.60;99.90;;;;;;5067821;28;20197;-71
2022/09/08 07:48:01;;;;;;;0.00;0.00;;;17.60;99.90;;;;;;5074239;28;20536;-71
2022/09/08 07:53:34;;;;;;;0.00;0.00;;;17.60;99.90;;;;;;5053257;28;20218;-71
2022/09/08 07:56:11;;;;;;;0.00;0.00;;;17.60;99.90;;;;;;5053548;28;20218;-70
2022/09/08 07:58:47;;;;;;;0.00;0.00;;;17.50;99.90;;;;;;5048797;28;20318;-70
2022/09/08 08:01:27;;;;;;;0.00;0.00;;;17.60;99.90;;;;;;5053244;28;20316;-70
2022/09/08 08:04:07;;;;;;;0.00;0.00;;;17.60;99.90;;;;;;5052749;28;20202;-72
2022/09/08 08:06:39;;;;;;;0.00;0.00;;;17.70;99.90;;;;;;5051977;28;20198;-69
2022/09/08 08:09:19;;;;;;;0.00;0.00;;;17.70;99.90;;;;;;5067800;28;20210;-69
2022/09/08 08:11:54;;;;;;;0.00;0.00;;;17.70;99.90;;;;;;5052461;28;20259;-69
2022/09/08 08:14:32;;;;;;;0.00;0.00;;;17.80;99.90;;;;;;5052956;28;20287;-69
2022/09/08 08:17:25;;;;;;;0.00;0.00;;;17.80;99.90;;;;;;5049719;28;20209;-70
2022/09/08 08:20:06;;;;;;;0.00;0.00;;;17.80;99.90;;;;;;5052898;28;20230;-70
2022/09/08 08:23:00;;;;;;;0.00;0.00;;;17.80;99.90;;;;;;5052665;28;20612;-70
2022/09/08 08:25:33;;;;;;;0.00;0.00;;;17.80;99.90;;;;;;5052527;28;20202;-69
2022/09/08 08:28:12;;;;;;;0.00;0.00;;;17.80;99.90;;;;;;5052948;28;20236;-70
2022/09/08 08:30:45;;;;;;;0.00;0.00;;;17.80;99.90;;;;;;5052698;28;20237;-72
2022/09/08 08:33:17;;;;;;;0.00;0.00;;;17.80;99.90;;;;;;5052602;28;20209;-70
2022/09/08 08:35:51;;;;;;;0.00;0.00;;;17.80;99.90;;;;;;5052921;28;20728;-70
2022/09/08 08:38:23;;;;;;;0.00;0.00;;;17.80;99.90;;;;;;5050800;28;20233;-69
2022/09/08 08:40:57;;;;;;;0.00;0.00;;;17.70;99.90;;;;;;5050813;28;20226;-71
2022/09/08 08:43:55;;;;;;;0.00;0.00;;;17.70;99.90;;;;;;5052296;28;20260;-69
2022/09/08 08:46:44;;;;;;;0.00;0.00;;;17.80;99.90;;;;;;5053609;28;20201;-69
2022/09/08 08:49:53;;;;;;;0.00;0.00;;;17.80;99.90;;;;;;5051715;28;20248;-69
2022/09/08 08:52:35;;;;;;;0.00;0.00;;;17.80;99.90;;;;;;5053353;28;20220;-69
2022/09/08 08:55:38;;;;;;;0.00;0.00;;;17.80;99.90;;;;;;5053702;28;20226;-71
2022/09/08 08:58:50;;;;;;;0.00;0.00;;;17.90;99.90;;;;;;5049600;28;20739;-69
2022/09/08 09:01:54;;;;;;;0.00;0.00;;;17.80;99.90;;;;;;5056718;28;20226;-70
2022/09/08 09:04:53;;;;;;;0.00;0.00;;;17.90;99.90;;;;;;5073921;28;20297;-70
2022/09/08 09:07:52;;;;;;;0.00;0.00;;;17.80;99.90;;;;;;5068951;28;20210;-70
2022/09/08 09:10:49;;;;;;;0.00;0.00;;;17.90;99.90;;;;;;5059985;28;20237;-70
2022/09/08 09:13:51;;;;;;;0.00;0.00;;;18.00;99.90;;;;;;5033442;28;20220;-70
2022/09/08 09:16:43;;;;;;;0.00;0.00;;;18.00;99.90;;;;;;5057405;28;20240;-72
2022/09/08 09:19:44;;;;;;;0.00;0.00;;;18.00;99.90;;;;;;5055389;28;20609;-70
2022/09/08 09:22:21;;;;;;;0.00;0.00;;;18.00;99.90;;;;;;5038804;28;20206;-70
2022/09/08 09:25:10;;;;;;;0.00;0.00;;;18.00;99.90;;;;;;5051771;28;20230;-70
2022/09/08 09:27:43;;;;;;;0.00;0.00;;;18.00;99.90;;;;;;5051156;28;20210;-70
2022/09/08 09:30:20;;;;;;;0.00;0.00;;;17.90;99.90;;;;;;5050996;28;20260;-70
2022/09/08 09:33:26;;;;;;;0.00;0.00;;;18.00;99.90;;;;;;5051179;28;20260;-70
2022/09/08 09:36:29;;;;;;;0.00;0.00;;;18.00;99.90;;;;;;5051182;28;20292;-70
2022/09/08 09:39:21;;;;;;;0.00;0.00;;;18.00;99.90;;;;;;5063439;28;20220;-71
2022/09/08 09:42:15;;;;;;;0.00;0.00;;;18.00;99.90;;;;;;5059755;28;20259;-70
2022/09/08 09:45:02;;;;;;;0.00;0.00;;;17.90;99.90;;;;;;5059543;28;20300;-70
2022/09/08 09:47:52;;;;;;;0.00;0.00;;;17.90;99.90;;;;;;5057332;28;20198;-71
2022/09/08 09:50:44;;;;;;;0.00;0.00;;;17.90;99.90;;;;;;5060586;28;20244;-72
2022/09/08 09:53:26;;;;;;;0.00;0.00;;;17.90;99.90;;;;;;5061301;28;20224;-71
2022/09/08 09:56:57;;;;;;;0.00;0.00;;;17.80;99.90;;;;;;5060728;28;20637;-70
2022/09/08 10:00:11;;;;;;;0.00;0.00;;;17.80;99.90;;;;;;5056203;28;20249;-70
2022/09/08 10:03:20;;;;;;;0.00;0.00;;;17.70;99.90;;;;;;5060629;28;20206;-70
2022/09/08 10:06:23;;;;;;;0.00;0.00;;;17.80;99.90;;;;;;5057221;28;20194;-72
2022/09/08 10:09:22;;;;;;;0.03;0.03;;;17.80;99.90;;;;;;5075799;28;20251;-72
2022/09/08 10:12:20;;;;;;;0.00;0.00;;;17.90;99.90;;;;;;5072394;28;20202;-73
2022/09/08 10:15:29;;;;;;;0.00;0.00;;;17.90;99.90;;;;;;5072956;28;20218;-73
2022/09/08 10:18:26;;;;;;;0.00;0.00;;;17.90;99.90;;;;;;5066988;28;20645;-75
2022/09/08 10:21:32;;;;;;;0.00;0.00;;;17.90;99.90;;;;;;5059084;28;20244;-72
2022/09/08 10:24:25;;;;;;;0.00;0.00;;;18.00;99.90;;;;;;5060914;28;20232;-72
2022/09/08 10:27:33;;;;;;;0.00;0.00;;;17.90;99.90;;;;;;5059513;28;20235;-74
2022/09/08 10:30:20;;;;;;;0.00;0.00;;;18.00;99.90;;;;;;5059713;28;20763;-72
2022/09/08 10:33:33;;;;;;;0.00;0.00;;;17.90;99.90;;;;;;5058969;28;20669;-72
2022/09/08 10:36:07;;;;;;;0.00;0.00;;;17.90;99.90;;;;;;5058375;28;20283;-73
2022/09/08 10:38:51;;;;;;;0.00;0.00;;;18.00;99.90;;;;;;5058423;28;20233;-72
2022/09/08 10:42:01;;;;;;;0.00;0.00;;;17.90;99.90;;;;;;5060229;28;20267;-72
2022/09/08 10:44:42;;;;;;;0.00;0.00;;;17.90;99.90;;;;;;5059589;28;20259;-73
2022/09/08 10:47:54;;;;;;;0.00;0.00;;;17.90;99.90;;;;;;5058568;28;20237;-75
2022/09/08 10:50:30;;;;;;;0.00;0.00;;;17.90;99.90;;;;;;5033917;28;20244;-74
2022/09/08 10:53:24;;;;;;;0.00;0.00;;;17.90;99.90;;;;;;5060600;28;20742;-73
2022/09/08 10:56:13;;;;;;;0.00;0.00;;;18.00;99.90;;;;;;5058486;28;20705;-74
2022/09/08 10:59:15;;;;;;;0.00;0.00;;;17.90;99.90;;;;;;5057933;28;20614;-72
2022/09/08 11:02:10;;;;;;;0.00;0.00;;;17.90;99.90;;;;;;5061082;28;20209;-72
2022/09/08 11:05:09;;;;;;;0.00;0.00;;;17.90;99.90;;;;;;5063051;28;20202;-72
2022/09/08 11:07:56;;;;;;;0.00;0.00;;;17.90;99.90;;;;;;5064038;28;20251;-76
2022/09/08 11:10:34;;;;;;;0.00;0.00;;;17.90;99.90;;;;;;5062614;28;20224;-72
2022/09/08 11:13:20;;;;;;;0.00;0.00;;;17.90;99.90;;;;;;5062905;28;20790;-72
2022/09/08 11:16:26;;;;;;;0.00;0.00;;;17.90;99.90;;;;;;5062305;28;20696;-72
2022/09/08 11:19:07;;;;;;;0.00;0.00;;;17.90;99.90;;;;;;5040575;28;20259;-74
2022/09/08 11:22:23;;;;;;;0.00;0.00;;;17.90;99.90;;;;;;5067063;28;20227;-74
2022/09/08 11:25:12;;;;;;;0.00;0.00;;;17.80;99.90;;;;;;5065862;28;20611;-73
2022/09/08 11:27:50;;;;;;;0.00;0.00;;;17.80;99.90;;;;;;5063624;28;20256;-73
2022/09/08 11:30:21;;;;;;;0.00;0.00;;;17.80;99.90;;;;;;5063407;28;20750;-74
2022/09/08 11:33:01;;;;;;;0.00;0.00;;;17.80;99.90;;;;;;5064295;28;20737;-72
2022/09/08 11:35:52;;;;;;;0.10;0.10;;;17.70;99.90;;;;;;5061393;28;20617;-73
2022/09/08 11:38:46;;;;;;;0.00;0.00;;;17.70;99.90;;;;;;5056937;28;20210;-73
2022/09/08 11:41:38;;;;;;;0.00;0.00;;;17.70;99.90;;;;;;5062227;28;20272;-73
2022/09/08 11:44:35;;;;;;;0.00;0.00;;;17.80;99.90;;;;;;5064092;28;20193;-73
2022/09/08 11:47:29;;;;;;;0.00;0.00;;;17.80;99.90;;;;;;5063032;28;20226;-73
2022/09/08 11:50:20;;;;;;;0.00;0.00;;;17.80;99.90;;;;;;5062552;28;20254;-73
2022/09/08 11:53:24;;;;;;;0.00;0.00;;;17.90;99.90;;;;;;5061811;28;20205;-73
2022/09/08 11:56:29;;;;;;;0.00;0.00;;;18.00;99.90;;;;;;5061708;28;20229;-72
2022/09/08 11:59:11;;;;;;;0.00;0.00;;;18.00;99.90;;;;;;5063240;28;20600;-74
2022/09/08 12:01:54;;;;;;;0.00;0.00;;;18.10;99.90;;;;;;5091345;22;20222;-75
2022/09/08 12:04:59;;;;;;;0.00;0.00;;;18.10;99.90;;;;;;5064772;28;20250;-75
2022/09/08 12:08:11;;;;;;;0.00;0.00;;;18.20;99.90;;;;;;5062068;28;20316;-75
2022/09/08 12:11:04;;;;;;;0.00;0.00;;;18.30;99.90;;;;;;5062522;28;20218;-74
2022/09/08 12:13:40;;;;;;;0.00;0.00;;;18.60;99.90;;;;;;5062045;28;20202;-75
2022/09/08 12:16:25;;;;;;;0.10;0.10;;;19.00;99.90;;;;;;5061607;28;20225;-75
2022/09/08 12:19:11;;;;;;;0.00;0.00;;;19.30;99.90;;;;;;5061673;28;20673;-74
2022/09/08 12:21:51;;;;;;;0.00;0.00;;;19.60;99.90;;;;;;5061789;28;20226;-75
2022/09/08 12:24:37;;;;;;;0.00;0.00;;;19.60;99.90;;;;;;5062997;28;20213;-76
2022/09/08 12:27:43;;;;;;;0.00;0.00;;;19.60;99.90;;;;;;5062001;28;20296;-76
2022/09/08 12:30:16;;;;;;;0.00;0.00;;;19.50;99.90;;;;;;5063384;28;20222;-76
2022/09/08 12:33:10;;;;;;;0.00;0.00;;;19.60;99.90;;;;;;5062659;28;20198;-76
2022/09/08 12:35:48;;;;;;;0.00;0.00;;;19.70;99.90;;;;;;5061571;28;20218;-76
2022/09/08 12:38:36;;;;;;;0.00;0.00;;;19.60;99.90;;;;;;5057430;28;20205;-77
2022/09/08 12:41:26;;;;;;;0.00;0.00;;;19.60;99.90;;;;;;5058157;28;20222;-76
2022/09/08 12:44:04;;;;;;;0.00;0.00;;;19.80;99.90;;;;;;5061485;28;20193;-75
2022/09/08 12:47:05;;;;;;;0.00;0.00;;;20.00;99.90;;;;;;5060687;28;20193;-77
2022/09/08 12:49:53;;;;;;;0.00;0.00;;;20.20;99.90;;;;;;5064220;28;20210;-76
2022/09/08 12:52:37;;;;;;;0.00;0.00;;;20.00;99.90;;;;;;5064451;28;20612;-77
2022/09/08 12:55:17;;;;;;;0.00;0.00;;;19.90;99.90;;;;;;5044843;28;20617;-76
2022/09/08 12:57:54;;;;;;;0.00;0.00;;;19.80;99.90;;;;;;5062757;28;20232;-76
2022/09/08 13:00:26;;;;;;;0.00;0.00;;;19.70;99.90;;;;;;5064015;28;20233;-77
2022/09/08 13:03:23;;;;;;;0.00;0.00;;;19.70;99.90;;;;;;5060546;28;20263;-75
2022/09/08 13:06:21;;;;;;;0.00;0.00;;;19.60;99.90;;;;;;5062406;28;20207;-76
2022/09/08 13:08:58;;;;;;;0.00;0.00;;;19.50;99.90;;;;;;5036769;28;20214;-75
2022/09/08 13:12:08;;;;;;;0.00;0.00;;;19.40;99.90;;;;;;5059630;28;20225;-77
2022/09/08 13:14:53;;;;;;;0.00;0.00;;;19.40;99.90;;;;;;5060193;28;20204;-76
2022/09/08 13:17:30;;;;;;;0.00;0.00;;;19.30;99.90;;;;;;5060673;28;20267;-75
2022/09/08 13:20:19;;;;;;;0.00;0.00;;;19.20;99.90;;;;;;5061922;28;20221;-76
2022/09/08 13:23:01;;;;;;;0.00;0.00;;;19.10;99.90;;;;;;5042841;28;20214;-76
2022/09/08 13:25:36;;;;;;;0.00;0.00;;;18.90;99.90;;;;;;5059735;28;20275;-76
2022/09/08 13:28:15;;;;;;;0.00;0.00;;;18.80;99.90;;;;;;5060583;28;20210;-76
2022/09/08 13:30:52;;;;;;;0.00;0.00;;;18.70;99.90;;;;;;5061609;28;20288;-76
2022/09/08 13:33:43;;;;;;;0.00;0.00;;;18.60;99.90;;;;;;5060178;28;20193;-78
2022/09/08 13:36:48;;;;;;;0.00;0.00;;;18.60;99.90;;;;;;5061555;28;20217;-77
2022/09/08 13:39:41;;;;;;;0.00;0.00;;;18.70;99.90;;;;;;5019264;28;20220;-76
2022/09/08 13:42:23;;;;;;;0.00;0.00;;;18.70;99.90;;;;;;5060738;28;21178;-76
2022/09/08 13:45:13;;;;;;;0.00;0.00;;;18.80;99.90;;;;;;5060057;28;20680;-76
2022/09/08 13:48:15;;;;;;;0.00;0.00;;;19.00;99.90;;;;;;5060980;28;20198;-76
2022/09/08 13:50:55;;;;;;;0.00;0.00;;;19.30;99.90;;;;;;5060489;28;20279;-76
2022/09/08 13:53:42;;;;;;;0.00;0.00;;;19.40;99.90;;;;;;5060706;28;20204;-76
2022/09/08 13:56:22;;;;;;;0.00;0.00;;;19.50;99.90;;;;;;5041464;28;20213;-75